sensor_id;sensor_type;location;lat;lon;timestamp;pressure;altitude;pressure_sealevel;temperature;humidity
3428;BME280;1727;42.624;23.406;2023-01-26T00:01:59;95382.16;;;-0.01;100.00
3428;BME280;1727;42.624;23.406;2023-01-26T00:04:25;95396.53;;;0.06;100.00
3428;BME280;1727;42.624;23.406;2023-01-26T00:06:52;95401.50;;;-0.13;100.00
3428;BME280;1727;42.624;23.406;2023-01-26T00:09:19;95397.13;;;-0.11;100.00
3428;BME280;1727;42.624;23.406;2023-01-26T00:11:46;95377.75;;;0.03;100.00
3428;BME280;1727;42.624;23.406;2023-01-26T00:14:13;95386.69;;;-0.08;100.00
3428;BME280;1727;42.624;23.406;2023-01-26T00:16:45;95393.88;;;-0.16;100.00
3428;BME280;1727;42.624;23.406;2023-01-26T00:19:12;95384.34;;;-0.14;100.00
3428;BME280;1727;42.624;23.406;2023-01-26T00:21:38;95395.06;;;-0.01;100.00
3428;BME280;1727;42.624;23.406;2023-01-26T00:24:06;95396.00;;;-0.04;100.00
3428;BME280;1727;42.624;23.406;2023-01-26T00:26:32;95395.22;;;-0.06;100.00
3428;BME280;1727;42.624;23.406;2023-01-26T00:28:59;95392.69;;;-0.07;100.00
3428;BME280;1727;42.624;23.406;2023-01-26T00:31:27;95385.81;;;-0.07;100.00
3428;BME280;1727;42.624;23.406;2023-01-26T00:33:56;95371.34;;;-0.11;100.00
3428;BME280;1727;42.624;23.406;2023-01-26T00:36:23;95358.91;;;0.01;100.00
3428;BME280;1727;42.624;23.406;2023-01-26T00:38:50;95360.69;;;-0.02;100.00
3428;BME280;1727;42.624;23.406;2023-01-26T00:41:17;95369.31;;;-0.03;100.00
3428;BME280;1727;42.624;23.406;2023-01-26T00:44:01;95362.94;;;-0.16;100.00
3428;BME280;1727;42.624;23.406;2023-01-26T00:46:28;95363.50;;;-0.08;100.00
3428;BME280;1727;42.624;23.406;2023-01-26T00:48:56;95360.28;;;-0.14;100.00
3428;BME280;1727;42.624;23.406;2023-01-26T00:51:25;95358.06;;;-0.23;100.00
3428;BME280;1727;42.624;23.406;2023-01-26T00:53:51;95351.78;;;-0.16;100.00
3428;BME280;1727;42.624;23.406;2023-01-26T00:56:18;95362.59;;;-0.07;100.00
3428;BME280;1727;42.624;23.406;2023-01-26T00:58:45;95352.16;;;-0.04;100.00
3428;BME280;1727;42.624;23.406;2023-01-26T01:01:12;95349.47;;;-0.01;100.00
3428;BME280;1727;42.624;23.406;2023-01-26T01:03:39;95349.69;;;-0.07;100.00
3428;BME280;1727;42.624;23.406;2023-01-26T01:06:07;95347.28;;;-0.11;100.00
3428;BME280;1727;42.624;23.406;2023-01-26T01:08:34;95343.97;;;-0.15;100.00
3428;BME280;1727;42.624;23.406;2023-01-26T01:11:05;95344.88;;;-0.16;100.00
3428;BME280;1727;42.624;23.406;2023-01-26T01:13:32;95341.56;;;-0.19;100.00
3428;BME280;1727;42.624;23.406;2023-01-26T01:15:58;95343.97;;;-0.15;100.00
3428;BME280;1727;42.624;23.406;2023-01-26T01:18:25;95342.19;;;-0.13;100.00
3428;BME280;1727;42.624;23.406;2023-01-26T01:20:52;95340.19;;;-0.29;100.00
3428;BME280;1727;42.624;23.406;2023-01-26T01:23:20;95333.88;;;-0.21;100.00
3428;BME280;1727;42.624;23.406;2023-01-26T01:25:55;95336.69;;;-0.27;100.00
3428;BME280;1727;42.624;23.406;2023-01-26T01:28:22;95335.69;;;-0.23;100.00
3428;BME280;1727;42.624;23.406;2023-01-26T01:30:49;95331.06;;;-0.38;100.00
3428;BME280;1727;42.624;23.406;2023-01-26T01:33:16;95330.84;;;-0.32;100.00
3428;BME280;1727;42.624;23.406;2023-01-26T01:35:43;95329.81;;;-0.26;100.00
3428;BME280;1727;42.624;23.406;2023-01-26T01:38:10;95325.16;;;-0.17;100.00
3428;BME280;1727;42.624;23.406;2023-01-26T01:40:42;95335.81;;;-0.26;100.00
3428;BME280;1727;42.624;23.406;2023-01-26T01:43:10;95328.97;;;-0.27;100.00
3428;BME280;1727;42.624;23.406;2023-01-26T01:45:42;95333.00;;;-0.20;100.00
3428;BME280;1727;42.624;23.406;2023-01-26T01:48:16;95333.72;;;-0.16;100.00
3428;BME280;1727;42.624;23.406;2023-01-26T01:50:44;95323.47;;;-0.18;100.00
3428;BME280;1727;42.624;23.406;2023-01-26T01:53:14;95332.66;;;-0.11;100.00
3428;BME280;1727;42.624;23.406;2023-01-26T01:55:45;95334.72;;;-0.20;99.46
3428;BME280;1727;42.624;23.406;2023-01-26T01:58:13;95329.63;;;-0.22;99.46
3428;BME280;1727;42.624;23.406;2023-01-26T02:00:40;95326.22;;;-0.22;100.00
3428;BME280;1727;42.624;23.406;2023-01-26T02:03:08;95318.69;;;-0.05;99.68
3428;BME280;1727;42.624;23.406;2023-01-26T02:05:49;95319.88;;;-0.14;100.00
3428;BME280;1727;42.624;23.406;2023-01-26T02:08:18;95301.94;;;-0.17;99.25
3428;BME280;1727;42.624;23.406;2023-01-26T02:10:52;95303.28;;;-0.07;99.71
3428;BME280;1727;42.624;23.406;2023-01-26T02:13:21;95310.09;;;-0.06;99.68
3428;BME280;1727;42.624;23.406;2023-01-26T02:15:49;95307.75;;;-0.12;99.38
3428;BME280;1727;42.624;23.406;2023-01-26T02:18:17;95306.03;;;-0.11;99.65
3428;BME280;1727;42.624;23.406;2023-01-26T02:20:45;95291.50;;;-0.14;99.92
3428;BME280;1727;42.624;23.406;2023-01-26T02:23:30;95284.50;;;-0.10;100.00
3428;BME280;1727;42.624;23.406;2023-01-26T02:26:06;95278.38;;;-0.08;99.65
3428;BME280;1727;42.624;23.406;2023-01-26T02:28:35;95280.78;;;-0.03;99.56
3428;BME280;1727;42.624;23.406;2023-01-26T02:31:03;95283.16;;;-0.20;99.58
3428;BME280;1727;42.624;23.406;2023-01-26T02:33:32;95277.78;;;-0.14;100.00
3428;BME280;1727;42.624;23.406;2023-01-26T02:36:00;95277.88;;;-0.17;99.21
3428;BME280;1727;42.624;23.406;2023-01-26T02:38:30;95266.97;;;-0.24;100.00
3428;BME280;1727;42.624;23.406;2023-01-26T02:41:02;95271.88;;;-0.18;100.00
3428;BME280;1727;42.624;23.406;2023-01-26T02:43:32;95267.22;;;-0.32;100.00
3428;BME280;1727;42.624;23.406;2023-01-26T02:45:58;95262.97;;;-0.33;100.00
3428;BME280;1727;42.624;23.406;2023-01-26T02:48:25;95255.16;;;-0.31;100.00
3428;BME280;1727;42.624;23.406;2023-01-26T02:51:10;95254.28;;;-0.30;100.00
3428;BME280;1727;42.624;23.406;2023-01-26T02:53:36;95257.56;;;-0.25;100.00
3428;BME280;1727;42.624;23.406;2023-01-26T02:56:04;95253.28;;;-0.26;100.00
3428;BME280;1727;42.624;23.406;2023-01-26T02:58:30;95248.00;;;-0.23;100.00
3428;BME280;1727;42.624;23.406;2023-01-26T03:00:58;95247.38;;;-0.29;100.00
3428;BME280;1727;42.624;23.406;2023-01-26T03:03:26;95242.41;;;-0.34;100.00
3428;BME280;1727;42.624;23.406;2023-01-26T03:06:09;95243.06;;;-0.29;100.00
3428;BME280;1727;42.624;23.406;2023-01-26T03:08:37;95242.19;;;-0.28;100.00
3428;BME280;1727;42.624;23.406;2023-01-26T03:11:05;95243.69;;;-0.22;100.00
3428;BME280;1727;42.624;23.406;2023-01-26T03:13:32;95238.03;;;-0.32;99.71
3428;BME280;1727;42.624;23.406;2023-01-26T03:16:01;95238.03;;;-0.32;99.66
3428;BME280;1727;42.624;23.406;2023-01-26T03:18:33;95228.00;;;-0.40;99.36
3428;BME280;1727;42.624;23.406;2023-01-26T03:21:17;95221.56;;;-0.28;99.78
3428;BME280;1727;42.624;23.406;2023-01-26T03:24:01;95208.50;;;-0.23;99.80
3428;BME280;1727;42.624;23.406;2023-01-26T03:26:46;95210.34;;;-0.27;99.51
3428;BME280;1727;42.624;23.406;2023-01-26T03:29:30;95214.69;;;-0.29;99.53
3428;BME280;1727;42.624;23.406;2023-01-26T03:31:59;95212.13;;;-0.29;99.22
3428;BME280;1727;42.624;23.406;2023-01-26T03:34:26;95195.94;;;-0.33;98.92
3428;BME280;1727;42.624;23.406;2023-01-26T03:36:54;95201.09;;;-0.33;99.25
3428;BME280;1727;42.624;23.406;2023-01-26T03:39:21;95212.25;;;-0.32;99.40
3428;BME280;1727;42.624;23.406;2023-01-26T03:42:05;95205.09;;;-0.24;99.25
3428;BME280;1727;42.624;23.406;2023-01-26T03:44:49;95201.47;;;-0.20;98.97
3428;BME280;1727;42.624;23.406;2023-01-26T03:47:35;95206.75;;;-0.23;99.17
3428;BME280;1727;42.624;23.406;2023-01-26T03:50:19;95202.44;;;-0.22;98.87
3428;BME280;1727;42.624;23.406;2023-01-26T03:53:12;95197.56;;;-0.30;99.28
3428;BME280;1727;42.624;23.406;2023-01-26T03:55:56;95180.00;;;-0.20;99.41
3428;BME280;1727;42.624;23.406;2023-01-26T03:58:40;95183.38;;;-0.18;99.23
3428;BME280;1727;42.624;23.406;2023-01-26T04:01:07;95182.91;;;-0.28;99.45
3428;BME280;1727;42.624;23.406;2023-01-26T04:03:36;95176.78;;;-0.25;99.94
3428;BME280;1727;42.624;23.406;2023-01-26T04:06:20;95173.31;;;-0.24;99.69
3428;BME280;1727;42.624;23.406;2023-01-26T04:09:04;95176.59;;;-0.21;99.54
3428;BME280;1727;42.624;23.406;2023-01-26T04:11:31;95179.84;;;-0.16;99.13
3428;BME280;1727;42.624;23.406;2023-01-26T04:13:58;95175.03;;;-0.25;99.06
3428;BME280;1727;42.624;23.406;2023-01-26T04:16:42;95167.50;;;-0.31;99.61
3428;BME280;1727;42.624;23.406;2023-01-26T04:19:27;95165.22;;;-0.39;100.00
3428;BME280;1727;42.624;23.406;2023-01-26T04:22:11;95153.72;;;-0.30;99.65
3428;BME280;1727;42.624;23.406;2023-01-26T04:24:39;95146.22;;;-0.36;99.96
3428;BME280;1727;42.624;23.406;2023-01-26T04:27:06;95142.81;;;-0.37;99.65
3428;BME280;1727;42.624;23.406;2023-01-26T04:29:33;95145.97;;;-0.28;98.69
3428;BME280;1727;42.624;23.406;2023-01-26T04:31:59;95146.31;;;-0.16;98.61
3428;BME280;1727;42.624;23.406;2023-01-26T04:34:27;95154.41;;;-0.25;98.62
3428;BME280;1727;42.624;23.406;2023-01-26T04:36:54;95142.34;;;-0.24;98.43
3428;BME280;1727;42.624;23.406;2023-01-26T04:39:21;95148.56;;;-0.30;98.46
3428;BME280;1727;42.624;23.406;2023-01-26T04:41:48;95148.47;;;-0.27;98.56
3428;BME280;1727;42.624;23.406;2023-01-26T04:44:14;95147.22;;;-0.17;98.56
3428;BME280;1727;42.624;23.406;2023-01-26T04:46:42;95148.09;;;-0.18;97.71
3428;BME280;1727;42.624;23.406;2023-01-26T04:49:10;95134.44;;;-0.20;98.60
3428;BME280;1727;42.624;23.406;2023-01-26T04:51:39;95132.38;;;-0.12;98.05
3428;BME280;1727;42.624;23.406;2023-01-26T04:54:06;95143.66;;;-0.14;97.99
3428;BME280;1727;42.624;23.406;2023-01-26T04:56:34;95137.78;;;-0.18;97.84
3428;BME280;1727;42.624;23.406;2023-01-26T04:59:03;95146.31;;;-0.16;97.87
3428;BME280;1727;42.624;23.406;2023-01-26T05:01:30;95138.81;;;-0.22;97.76
3428;BME280;1727;42.624;23.406;2023-01-26T05:03:58;95148.00;;;-0.15;98.35
3428;BME280;1727;42.624;23.406;2023-01-26T05:06:25;95148.38;;;-0.04;97.21
3428;BME280;1727;42.624;23.406;2023-01-26T05:08:53;95141.41;;;0.00;97.20
3428;BME280;1727;42.624;23.406;2023-01-26T05:11:20;95143.16;;;0.20;96.66
3428;BME280;1727;42.624;23.406;2023-01-26T05:13:47;95138.84;;;0.20;96.33
3428;BME280;1727;42.624;23.406;2023-01-26T05:16:15;95135.59;;;0.15;95.76
3428;BME280;1727;42.624;23.406;2023-01-26T05:18:42;95125.81;;;0.23;95.27
3428;BME280;1727;42.624;23.406;2023-01-26T05:21:10;95134.38;;;0.24;95.13
3428;BME280;1727;42.624;23.406;2023-01-26T05:23:37;95131.47;;;0.11;95.68
3428;BME280;1727;42.624;23.406;2023-01-26T05:26:06;95126.97;;;0.16;95.75
3428;BME280;1727;42.624;23.406;2023-01-26T05:28:34;95126.13;;;0.16;96.10
3428;BME280;1727;42.624;23.406;2023-01-26T05:31:01;95114.53;;;0.26;95.92
3428;BME280;1727;42.624;23.406;2023-01-26T05:33:27;95127.34;;;0.27;95.74
3428;BME280;1727;42.624;23.406;2023-01-26T05:35:54;95126.41;;;0.30;95.56
3428;BME280;1727;42.624;23.406;2023-01-26T05:38:21;95119.50;;;0.30;95.40
3428;BME280;1727;42.624;23.406;2023-01-26T05:40:48;95117.09;;;0.26;95.61
3428;BME280;1727;42.624;23.406;2023-01-26T05:43:21;95122.50;;;0.20;96.30
3428;BME280;1727;42.624;23.406;2023-01-26T05:45:47;95116.13;;;0.28;95.41
3428;BME280;1727;42.624;23.406;2023-01-26T05:48:25;95120.72;;;0.22;95.63
3428;BME280;1727;42.624;23.406;2023-01-26T05:51:14;95121.81;;;0.16;96.32
3428;BME280;1727;42.624;23.406;2023-01-26T05:53:54;95122.44;;;0.21;95.98
3428;BME280;1727;42.624;23.406;2023-01-26T05:56:21;95126.28;;;0.33;95.91
3428;BME280;1727;42.624;23.406;2023-01-26T05:58:49;95129.84;;;0.30;95.07
3428;BME280;1727;42.624;23.406;2023-01-26T06:01:16;95121.06;;;0.35;94.90
3428;BME280;1727;42.624;23.406;2023-01-26T06:03:43;95120.44;;;0.28;95.45
3428;BME280;1727;42.624;23.406;2023-01-26T06:06:10;95117.75;;;0.51;94.98
3428;BME280;1727;42.624;23.406;2023-01-26T06:08:37;95117.84;;;0.70;94.19
3428;BME280;1727;42.624;23.406;2023-01-26T06:11:04;95120.47;;;0.69;93.26
3428;BME280;1727;42.624;23.406;2023-01-26T06:13:30;95116.03;;;0.72;92.97
3428;BME280;1727;42.624;23.406;2023-01-26T06:16:00;95124.88;;;0.67;92.98
3428;BME280;1727;42.624;23.406;2023-01-26T06:18:27;95116.16;;;0.69;93.57
3428;BME280;1727;42.624;23.406;2023-01-26T06:20:57;95113.94;;;0.80;92.78
3428;BME280;1727;42.624;23.406;2023-01-26T06:23:25;95113.91;;;0.61;93.31
3428;BME280;1727;42.624;23.406;2023-01-26T06:25:52;95119.44;;;0.52;93.43
3428;BME280;1727;42.624;23.406;2023-01-26T06:28:18;95111.50;;;0.57;94.01
3428;BME280;1727;42.624;23.406;2023-01-26T06:30:45;95104.91;;;0.50;93.77
3428;BME280;1727;42.624;23.406;2023-01-26T06:33:14;95106.22;;;0.60;92.80
3428;BME280;1727;42.624;23.406;2023-01-26T06:35:40;95100.72;;;0.47;93.53
3428;BME280;1727;42.624;23.406;2023-01-26T06:38:07;95106.09;;;0.43;94.29
3428;BME280;1727;42.624;23.406;2023-01-26T06:40:34;95099.06;;;0.46;93.80
3428;BME280;1727;42.624;23.406;2023-01-26T06:43:01;95109.88;;;0.54;94.20
3428;BME280;1727;42.624;23.406;2023-01-26T06:45:27;95107.31;;;0.34;94.47
3428;BME280;1727;42.624;23.406;2023-01-26T06:47:54;95101.25;;;0.35;95.36
3428;BME280;1727;42.624;23.406;2023-01-26T06:50:25;95096.38;;;0.27;95.79
3428;BME280;1727;42.624;23.406;2023-01-26T06:52:58;95098.25;;;0.24;96.53
3428;BME280;1727;42.624;23.406;2023-01-26T06:55:31;95097.22;;;0.28;96.70
3428;BME280;1727;42.624;23.406;2023-01-26T06:58:00;95102.44;;;0.26;96.71
3428;BME280;1727;42.624;23.406;2023-01-26T07:00:26;95092.06;;;0.28;97.48
3428;BME280;1727;42.624;23.406;2023-01-26T07:02:53;95098.53;;;0.38;96.98
3428;BME280;1727;42.624;23.406;2023-01-26T07:05:20;95100.41;;;0.35;96.77
3428;BME280;1727;42.624;23.406;2023-01-26T07:07:48;95095.69;;;0.24;97.54
3428;BME280;1727;42.624;23.406;2023-01-26T07:10:15;95086.03;;;0.29;97.20
3428;BME280;1727;42.624;23.406;2023-01-26T07:12:43;95078.09;;;0.34;97.26
3428;BME280;1727;42.624;23.406;2023-01-26T07:15:11;95074.75;;;0.32;97.53
3428;BME280;1727;42.624;23.406;2023-01-26T07:17:38;95083.91;;;0.39;96.91
3428;BME280;1727;42.624;23.406;2023-01-26T07:20:06;95074.22;;;0.44;96.70
3428;BME280;1727;42.624;23.406;2023-01-26T07:22:33;95065.34;;;0.49;96.24
3428;BME280;1727;42.624;23.406;2023-01-26T07:25:01;95077.13;;;0.36;96.29
3428;BME280;1727;42.624;23.406;2023-01-26T07:27:28;95081.56;;;0.53;96.10
3428;BME280;1727;42.624;23.406;2023-01-26T07:29:55;95074.78;;;0.50;96.13
3428;BME280;1727;42.624;23.406;2023-01-26T07:32:22;95065.56;;;0.65;96.43
3428;BME280;1727;42.624;23.406;2023-01-26T07:34:49;95085.88;;;0.73;95.63
3428;BME280;1727;42.624;23.406;2023-01-26T07:37:15;95068.13;;;0.65;95.54
3428;BME280;1727;42.624;23.406;2023-01-26T07:39:42;95071.06;;;0.76;95.04
3428;BME280;1727;42.624;23.406;2023-01-26T07:42:11;95053.31;;;0.89;94.57
3428;BME280;1727;42.624;23.406;2023-01-26T07:44:37;95060.19;;;0.70;95.08
3428;BME280;1727;42.624;23.406;2023-01-26T07:47:04;95057.44;;;0.93;95.02
3428;BME280;1727;42.624;23.406;2023-01-26T07:49:31;95066.06;;;1.11;94.78
3428;BME280;1727;42.624;23.406;2023-01-26T07:51:58;95063.03;;;1.21;93.89
3428;BME280;1727;42.624;23.406;2023-01-26T07:54:25;95056.38;;;1.35;92.75
3428;BME280;1727;42.624;23.406;2023-01-26T07:56:52;95058.66;;;1.41;92.19
3428;BME280;1727;42.624;23.406;2023-01-26T07:59:20;95060.09;;;1.48;91.34
3428;BME280;1727;42.624;23.406;2023-01-26T08:01:48;95067.34;;;1.40;91.42
3428;BME280;1727;42.624;23.406;2023-01-26T08:04:15;95059.38;;;1.26;91.63
3428;BME280;1727;42.624;23.406;2023-01-26T08:09:40;95042.66;;;1.51;91.83
3428;BME280;1727;42.624;23.406;2023-01-26T08:12:07;95053.88;;;1.69;91.34
3428;BME280;1727;42.624;23.406;2023-01-26T08:14:35;95048.09;;;1.64;90.60
3428;BME280;1727;42.624;23.406;2023-01-26T08:17:02;95040.19;;;1.67;91.10
3428;BME280;1727;42.624;23.406;2023-01-26T08:19:29;95041.69;;;1.54;89.43
3428;BME280;1727;42.624;23.406;2023-01-26T08:21:55;95036.31;;;1.40;90.50
3428;BME280;1727;42.624;23.406;2023-01-26T08:24:22;95041.00;;;1.32;91.32
3428;BME280;1727;42.624;23.406;2023-01-26T08:26:50;95042.31;;;1.59;90.88
3428;BME280;1727;42.624;23.406;2023-01-26T08:29:17;95035.53;;;1.57;90.07
3428;BME280;1727;42.624;23.406;2023-01-26T08:31:46;95036.75;;;1.67;89.77
3428;BME280;1727;42.624;23.406;2023-01-26T08:34:13;95039.44;;;1.82;89.97
3428;BME280;1727;42.624;23.406;2023-01-26T08:36:40;95033.81;;;1.92;89.41
3428;BME280;1727;42.624;23.406;2023-01-26T08:39:07;95032.59;;;1.99;88.41
3428;BME280;1727;42.624;23.406;2023-01-26T08:41:33;95039.63;;;2.14;88.14
3428;BME280;1727;42.624;23.406;2023-01-26T08:44:01;95033.78;;;2.10;87.43
3428;BME280;1727;42.624;23.406;2023-01-26T08:46:27;95038.19;;;2.08;87.74
3428;BME280;1727;42.624;23.406;2023-01-26T08:48:56;95036.28;;;2.12;86.78
3428;BME280;1727;42.624;23.406;2023-01-26T08:51:22;95033.69;;;2.12;87.27
3428;BME280;1727;42.624;23.406;2023-01-26T08:53:49;95036.28;;;2.12;86.97
3428;BME280;1727;42.624;23.406;2023-01-26T08:56:19;95048.69;;;2.23;86.30
3428;BME280;1727;42.624;23.406;2023-01-26T08:58:46;95041.38;;;2.13;86.23
3428;BME280;1727;42.624;23.406;2023-01-26T09:01:14;95031.25;;;2.09;86.45
3428;BME280;1727;42.624;23.406;2023-01-26T09:03:41;95029.88;;;2.02;86.43
3428;BME280;1727;42.624;23.406;2023-01-26T09:06:12;95041.81;;;2.22;85.84
3428;BME280;1727;42.624;23.406;2023-01-26T09:08:40;95044.72;;;2.15;86.03
3428;BME280;1727;42.624;23.406;2023-01-26T09:11:07;95039.03;;;2.09;86.99
3428;BME280;1727;42.624;23.406;2023-01-26T09:13:35;95028.03;;;2.21;86.26
3428;BME280;1727;42.624;23.406;2023-01-26T09:16:03;95026.38;;;2.37;85.88
3428;BME280;1727;42.624;23.406;2023-01-26T09:18:31;95029.41;;;2.45;85.45
3428;BME280;1727;42.624;23.406;2023-01-26T09:21:01;95020.63;;;2.48;85.31
3428;BME280;1727;42.624;23.406;2023-01-26T09:23:30;95012.13;;;2.29;84.96
3428;BME280;1727;42.624;23.406;2023-01-26T09:25:57;95014.78;;;2.27;85.65
3428;BME280;1727;42.624;23.406;2023-01-26T09:28:24;95011.53;;;2.06;85.72
3428;BME280;1727;42.624;23.406;2023-01-26T09:30:51;95012.28;;;2.26;85.79
3428;BME280;1727;42.624;23.406;2023-01-26T09:33:18;94998.50;;;2.25;85.82
3428;BME280;1727;42.624;23.406;2023-01-26T09:35:45;94990.16;;;2.03;86.77
3428;BME280;1727;42.624;23.406;2023-01-26T09:38:13;94985.81;;;2.03;86.93
3428;BME280;1727;42.624;23.406;2023-01-26T09:40:49;94995.25;;;1.87;87.11
3428;BME280;1727;42.624;23.406;2023-01-26T09:43:24;94996.75;;;1.91;88.42
3428;BME280;1727;42.624;23.406;2023-01-26T09:46:00;94995.47;;;2.00;87.34
3428;BME280;1727;42.624;23.406;2023-01-26T09:48:34;94998.22;;;1.97;87.41
3428;BME280;1727;42.624;23.406;2023-01-26T09:51:06;94985.06;;;1.84;87.98
3428;BME280;1727;42.624;23.406;2023-01-26T09:53:40;94975.69;;;1.81;88.13
3428;BME280;1727;42.624;23.406;2023-01-26T09:56:15;94968.97;;;1.95;88.07
3428;BME280;1727;42.624;23.406;2023-01-26T09:58:45;94962.38;;;1.89;88.14
3428;BME280;1727;42.624;23.406;2023-01-26T10:01:16;94975.22;;;1.91;87.92
3428;BME280;1727;42.624;23.406;2023-01-26T10:03:49;94978.75;;;2.07;87.02
3428;BME280;1727;42.624;23.406;2023-01-26T10:06:21;94977.34;;;2.00;87.14
3428;BME280;1727;42.624;23.406;2023-01-26T10:08:51;94980.25;;;2.11;87.08
3428;BME280;1727;42.624;23.406;2023-01-26T10:11:26;94973.09;;;2.16;87.72
3428;BME280;1727;42.624;23.406;2023-01-26T10:14:02;94970.41;;;2.35;87.19
3428;BME280;1727;42.624;23.406;2023-01-26T10:16:32;94974.38;;;2.25;87.42
3428;BME280;1727;42.624;23.406;2023-01-26T10:19:02;94959.97;;;2.19;87.44
3428;BME280;1727;42.624;23.406;2023-01-26T10:21:32;94946.84;;;2.06;87.05
3428;BME280;1727;42.624;23.406;2023-01-26T10:24:01;94944.19;;;2.08;87.65
3428;BME280;1727;42.624;23.406;2023-01-26T10:26:32;94932.28;;;2.21;86.14
3428;BME280;1727;42.624;23.406;2023-01-26T10:28:59;94925.00;;;2.28;87.64
3428;BME280;1727;42.624;23.406;2023-01-26T10:31:28;94922.41;;;2.12;87.78
3428;BME280;1727;42.624;23.406;2023-01-26T10:33:57;94921.00;;;2.22;87.48
3428;BME280;1727;42.624;23.406;2023-01-26T10:36:28;94908.38;;;2.16;87.55
3428;BME280;1727;42.624;23.406;2023-01-26T10:39:03;94901.78;;;2.26;87.34
3428;BME280;1727;42.624;23.406;2023-01-26T10:41:31;94891.19;;;2.15;86.54
3428;BME280;1727;42.624;23.406;2023-01-26T10:44:00;94889.94;;;2.22;87.68
3428;BME280;1727;42.624;23.406;2023-01-26T10:46:31;94887.25;;;2.08;87.13
3428;BME280;1727;42.624;23.406;2023-01-26T10:48:59;94878.63;;;2.07;87.69
3428;BME280;1727;42.624;23.406;2023-01-26T10:51:29;94878.16;;;2.16;87.23
3428;BME280;1727;42.624;23.406;2023-01-26T10:54:19;94866.53;;;2.08;86.96
3428;BME280;1727;42.624;23.406;2023-01-26T10:56:50;94860.03;;;2.16;86.71
3428;BME280;1727;42.624;23.406;2023-01-26T10:59:30;94848.44;;;2.08;86.96
3428;BME280;1727;42.624;23.406;2023-01-26T11:01:59;94847.88;;;2.01;87.57
3428;BME280;1727;42.624;23.406;2023-01-26T11:04:27;94841.25;;;2.13;87.73
3428;BME280;1727;42.624;23.406;2023-01-26T11:06:54;94839.25;;;2.18;87.74
3428;BME280;1727;42.624;23.406;2023-01-26T11:09:26;94831.72;;;2.13;87.85
3428;BME280;1727;42.624;23.406;2023-01-26T11:11:59;94828.56;;;2.24;87.32
3428;BME280;1727;42.624;23.406;2023-01-26T11:14:27;94825.59;;;2.32;87.82
3428;BME280;1727;42.624;23.406;2023-01-26T11:16:59;94828.06;;;2.17;87.17
3428;BME280;1727;42.624;23.406;2023-01-26T11:22:30;94811.94;;;2.12;88.22
3428;BME280;1727;42.624;23.406;2023-01-26T11:25:06;94796.34;;;2.14;87.93
3428;BME280;1727;42.624;23.406;2023-01-26T11:27:45;94785.88;;;2.15;89.13
3428;BME280;1727;42.624;23.406;2023-01-26T11:30:36;94786.22;;;2.09;88.89
3428;BME280;1727;42.624;23.406;2023-01-26T11:33:15;94772.50;;;1.92;89.55
3428;BME280;1727;42.624;23.406;2023-01-26T11:35:51;94767.09;;;1.96;89.99
3428;BME280;1727;42.624;23.406;2023-01-26T11:38:30;94775.94;;;1.92;89.20
3428;BME280;1727;42.624;23.406;2023-01-26T11:41:10;94761.56;;;2.02;90.09
3428;BME280;1727;42.624;23.406;2023-01-26T11:44:11;94750.13;;;2.54;99.95
3428;BME280;1727;42.624;23.406;2023-01-26T11:46:55;94762.72;;;2.60;90.20
3428;BME280;1727;42.624;23.406;2023-01-26T11:49:41;94766.75;;;2.65;88.77
3428;BME280;1727;42.624;23.406;2023-01-26T11:52:20;94761.97;;;2.73;87.60
3428;BME280;1727;42.624;23.406;2023-01-26T11:55:00;94749.63;;;3.23;97.32
3428;BME280;1727;42.624;23.406;2023-01-26T11:57:35;94767.78;;;3.23;88.48
3428;BME280;1727;42.624;23.406;2023-01-26T12:00:13;94763.75;;;3.17;86.09
3428;BME280;1727;42.624;23.406;2023-01-26T12:02:42;94764.59;;;3.18;86.02
3428;BME280;1727;42.624;23.406;2023-01-26T12:05:14;94757.50;;;3.21;85.81
3428;BME280;1727;42.624;23.406;2023-01-26T12:07:47;94755.47;;;3.26;85.54
3428;BME280;1727;42.624;23.406;2023-01-26T12:10:23;94759.41;;;3.18;84.98
3428;BME280;1727;42.624;23.406;2023-01-26T12:12:56;94753.00;;;3.09;84.98
3428;BME280;1727;42.624;23.406;2023-01-26T12:15:32;94741.25;;;3.18;85.47
3428;BME280;1727;42.624;23.406;2023-01-26T12:18:04;94740.63;;;3.14;86.50
3428;BME280;1727;42.624;23.406;2023-01-26T12:20:37;94742.03;;;3.20;85.55
3428;BME280;1727;42.624;23.406;2023-01-26T12:23:10;94733.66;;;3.15;86.05
3428;BME280;1727;42.624;23.406;2023-01-26T12:25:40;94722.41;;;2.86;86.44
3428;BME280;1727;42.624;23.406;2023-01-26T12:28:17;94713.47;;;2.61;88.89
3428;BME280;1727;42.624;23.406;2023-01-26T12:30:52;94708.41;;;2.74;88.24
3428;BME280;1727;42.624;23.406;2023-01-26T12:33:21;94713.13;;;2.82;88.63
3428;BME280;1727;42.624;23.406;2023-01-26T12:36:13;94699.59;;;2.62;88.44
3428;BME280;1727;42.624;23.406;2023-01-26T12:39:00;94696.19;;;2.76;88.70
3428;BME280;1727;42.624;23.406;2023-01-26T12:41:34;94690.28;;;2.74;88.74
3428;BME280;1727;42.624;23.406;2023-01-26T12:44:15;94686.22;;;2.84;89.05
3428;BME280;1727;42.624;23.406;2023-01-26T12:46:49;94695.63;;;2.71;89.36
3428;BME280;1727;42.624;23.406;2023-01-26T12:49:20;94688.34;;;2.77;89.55
3428;BME280;1727;42.624;23.406;2023-01-26T12:51:50;94693.16;;;2.84;89.20
3428;BME280;1727;42.624;23.406;2023-01-26T12:54:25;94688.06;;;2.82;90.53
3428;BME280;1727;42.624;23.406;2023-01-26T12:56:56;94687.69;;;2.74;90.36
3428;BME280;1727;42.624;23.406;2023-01-26T12:59:31;94680.75;;;2.89;90.94
3428;BME280;1727;42.624;23.406;2023-01-26T13:02:00;94678.63;;;2.81;90.76
3428;BME280;1727;42.624;23.406;2023-01-26T13:04:35;94680.00;;;2.87;90.10
3428;BME280;1727;42.624;23.406;2023-01-26T13:07:03;94682.97;;;2.80;90.90
3428;BME280;1727;42.624;23.406;2023-01-26T13:10:06;94687.38;;;2.94;89.89
3428;BME280;1727;42.624;23.406;2023-01-26T13:12:53;94682.09;;;2.96;90.72
3428;BME280;1727;42.624;23.406;2023-01-26T13:15:22;94677.31;;;2.74;90.78
3428;BME280;1727;42.624;23.406;2023-01-26T13:17:53;94677.59;;;2.84;90.75
3428;BME280;1727;42.624;23.406;2023-01-26T13:20:44;94682.88;;;2.82;91.29
3428;BME280;1727;42.624;23.406;2023-01-26T13:26:23;94667.13;;;2.71;91.01
3428;BME280;1727;42.624;23.406;2023-01-26T13:28:51;94663.56;;;2.58;91.96
3428;BME280;1727;42.624;23.406;2023-01-26T13:31:30;94662.81;;;2.56;92.39
3428;BME280;1727;42.624;23.406;2023-01-26T13:34:00;94645.63;;;2.55;92.40
3428;BME280;1727;42.624;23.406;2023-01-26T13:36:31;94657.88;;;2.67;92.04
3428;BME280;1727;42.624;23.406;2023-01-26T13:39:03;94648.63;;;2.77;91.66
3428;BME280;1727;42.624;23.406;2023-01-26T13:41:31;94647.16;;;2.73;91.68
3428;BME280;1727;42.624;23.406;2023-01-26T13:44:04;94650.69;;;2.86;92.36